createdAt,value
2023-05-07T00:00:38.120Z,28.02
2023-05-07T00:03:08.579Z,27.95
2023-05-07T00:05:39.045Z,24.80
2023-05-07T00:08:09.964Z,21.63
2023-05-07T00:10:40.077Z,20.35
2023-05-07T00:13:12.927Z,20.98
2023-05-07T00:15:43.628Z,21.27
2023-05-07T00:18:13.819Z,20.52
2023-05-07T00:20:43.979Z,21.50
2023-05-07T00:23:14.945Z,20.95
2023-05-07T00:25:45.083Z,21.45
2023-05-07T00:28:17.928Z,21.55
2023-05-07T00:30:49.657Z,20.90
2023-05-07T00:33:21.625Z,20.52
2023-05-07T00:35:52.110Z,21.13
2023-05-07T00:38:22.319Z,18.95
2023-05-07T00:40:52.788Z,18.65
2023-05-07T00:43:25.555Z,19.55
2023-05-07T00:45:56.017Z,18.03
2023-05-07T00:48:27.425Z,18.23
2023-05-07T00:50:58.047Z,19.35
2023-05-07T00:53:28.668Z,20.00
2023-05-07T00:55:59.850Z,25.85
2023-05-07T00:58:34.966Z,23.38
2023-05-07T01:01:05.624Z,29.20
2023-05-07T01:03:39.589Z,23.50
2023-05-07T01:06:15.186Z,21.25
2023-05-07T01:08:46.305Z,21.52
2023-05-07T01:11:16.839Z,19.98
2023-05-07T01:13:50.607Z,19.70
2023-05-07T01:16:21.622Z,19.48
2023-05-07T01:18:52.173Z,19.92
2023-05-07T01:21:27.833Z,21.13
2023-05-07T01:24:04.795Z,21.10
2023-05-07T01:26:36.984Z,24.88
2023-05-07T01:29:07.526Z,27.33
2023-05-07T01:31:38.999Z,25.85
2023-05-07T01:34:11.238Z,23.42
2023-05-07T01:36:42.727Z,21.88
2023-05-07T01:39:16.348Z,22.02
2023-05-07T01:44:18.919Z,24.02
2023-05-07T01:46:49.642Z,22.13
2023-05-07T01:49:20.626Z,22.40
2023-05-07T01:51:50.834Z,22.17
2023-05-07T01:54:24.707Z,23.15
2023-05-07T01:56:54.925Z,21.55
2023-05-07T01:59:25.165Z,25.23
2023-05-07T02:01:55.993Z,25.50
2023-05-07T02:04:27.199Z,26.70
2023-05-07T02:06:57.843Z,25.60
2023-05-07T02:09:30.824Z,26.35
2023-05-07T02:12:01.100Z,24.88
2023-05-07T02:14:31.323Z,25.42
2023-05-07T02:17:01.704Z,23.98
2023-05-07T02:19:32.009Z,24.08
2023-05-07T02:22:02.154Z,24.85
2023-05-07T02:24:36.871Z,25.75
2023-05-07T02:27:07.178Z,25.23
2023-05-07T02:29:39.120Z,25.65
2023-05-07T02:32:09.463Z,24.98
2023-05-07T02:34:39.664Z,24.45
2023-05-07T02:37:09.903Z,24.67
2023-05-07T02:39:42.732Z,24.33
2023-05-07T02:42:12.934Z,23.53
2023-05-07T02:44:43.139Z,22.98
2023-05-07T02:47:14.322Z,22.60
2023-05-07T02:49:45.770Z,22.17
2023-05-07T02:52:15.949Z,21.90
2023-05-07T02:54:48.812Z,21.70
2023-05-07T02:57:19.123Z,22.63
2023-05-07T02:59:49.267Z,21.75
2023-05-07T03:02:21.447Z,21.98
2023-05-07T03:04:51.649Z,21.00
2023-05-07T03:07:21.851Z,22.75
2023-05-07T03:09:54.943Z,20.98
2023-05-07T03:12:25.136Z,21.33
2023-05-07T03:14:55.350Z,22.25
2023-05-07T03:17:25.910Z,21.25
2023-05-07T03:19:56.115Z,20.88
2023-05-07T03:22:26.556Z,17.95
2023-05-07T03:24:59.840Z,20.05
2023-05-07T03:27:30.080Z,22.65
2023-05-07T03:30:00.312Z,22.35
2023-05-07T03:32:31.005Z,21.60
2023-05-07T03:35:01.352Z,21.27
2023-05-07T03:37:31.716Z,21.77
2023-05-07T03:40:05.151Z,21.23
2023-05-07T03:42:41.594Z,21.27
2023-05-07T03:45:13.319Z,20.67
2023-05-07T03:47:47.878Z,20.88
2023-05-07T03:50:21.734Z,20.98
2023-05-07T03:52:52.017Z,20.67
2023-05-07T03:55:28.009Z,20.65
2023-05-07T03:58:02.248Z,19.35
2023-05-07T04:00:35.927Z,20.77
2023-05-07T04:03:06.532Z,21.15
2023-05-07T04:05:36.760Z,21.58
2023-05-07T04:08:07.690Z,21.70
2023-05-07T04:10:45.366Z,21.77
2023-05-07T04:13:15.609Z,21.73
2023-05-07T04:15:47.760Z,20.52
2023-05-07T04:18:21.253Z,19.38
2023-05-07T04:20:53.338Z,17.98
2023-05-07T04:23:23.488Z,17.63
2023-05-07T04:25:56.469Z,17.52
2023-05-07T04:28:35.118Z,16.27
2023-05-07T04:31:05.541Z,17.17
2023-05-07T04:33:38.062Z,16.65
2023-05-07T04:36:10.717Z,18.10
2023-05-07T04:38:47.951Z,16.90
2023-05-07T04:41:21.852Z,16.02
2023-05-07T04:43:52.768Z,15.10
2023-05-07T04:46:26.125Z,14.95
2023-05-07T04:48:57.978Z,14.63
2023-05-07T04:51:29.215Z,14.52
2023-05-07T04:53:59.793Z,13.52
2023-05-07T04:56:34.801Z,14.45
2023-05-07T04:59:06.965Z,13.57
2023-05-07T05:01:37.773Z,14.68
2023-05-07T05:04:08.448Z,13.40
2023-05-07T05:06:38.743Z,13.60
2023-05-07T05:09:11.106Z,13.73
2023-05-07T05:11:45.886Z,14.02
2023-05-07T05:14:16.123Z,14.77
2023-05-07T05:16:46.379Z,14.65
2023-05-07T05:19:17.011Z,14.05
2023-05-07T05:21:48.332Z,14.95
2023-05-07T05:24:19.080Z,13.68
2023-05-07T05:26:51.865Z,12.75
2023-05-07T05:29:22.123Z,12.70
2023-05-07T05:31:52.668Z,12.73
2023-05-07T05:34:23.434Z,12.63
2023-05-07T05:36:53.760Z,12.68
2023-05-07T05:39:24.479Z,12.10
2023-05-07T05:41:57.369Z,13.27
2023-05-07T05:47:00.510Z,11.38
2023-05-07T05:49:31.556Z,13.02
2023-05-07T05:52:02.012Z,10.55
2023-05-07T05:54:32.956Z,13.00
2023-05-07T05:57:06.025Z,14.50
2023-05-07T05:59:36.841Z,13.70
2023-05-07T06:02:07.167Z,13.70
2023-05-07T06:04:37.946Z,11.90
2023-05-07T06:07:08.856Z,10.27
2023-05-07T06:09:39.080Z,10.43
2023-05-07T06:12:12.413Z,8.90
2023-05-07T06:14:42.612Z,8.45
2023-05-07T06:17:13.005Z,8.30
2023-05-07T06:19:43.383Z,7.05
2023-05-07T06:22:15.404Z,6.40
2023-05-07T06:24:45.610Z,5.50
2023-05-07T06:27:19.297Z,5.63
2023-05-07T06:32:23.018Z,6.15
2023-05-07T06:34:54.513Z,5.15
2023-05-07T06:37:24.799Z,5.68
2023-05-07T06:40:05.101Z,5.97
2023-05-07T06:42:40.603Z,6.30
2023-05-07T06:45:40.049Z,6.20
2023-05-07T06:48:12.759Z,6.83
2023-05-07T06:50:56.944Z,6.40
2023-05-07T06:53:27.778Z,5.93
2023-05-07T06:55:59.655Z,5.97
2023-05-07T06:58:32.587Z,5.88
2023-05-07T07:01:04.004Z,4.82
2023-05-07T07:03:35.808Z,5.55
2023-05-07T07:06:06.017Z,5.55
2023-05-07T07:08:36.227Z,6.20
2023-05-07T07:11:06.437Z,5.82
2023-05-07T07:13:39.224Z,7.68
2023-05-07T07:16:09.864Z,6.70
2023-05-07T07:18:40.286Z,6.60
2023-05-07T07:21:10.966Z,6.90
2023-05-07T07:23:41.657Z,7.07
2023-05-07T07:26:12.438Z,7.63
2023-05-07T07:28:49.885Z,7.78
2023-05-07T07:31:23.697Z,7.38
2023-05-07T07:33:54.951Z,8.05
2023-05-07T07:36:29.456Z,8.20
2023-05-07T07:39:09.651Z,8.23
2023-05-07T07:41:41.008Z,8.20
2023-05-07T07:44:16.050Z,7.45
2023-05-07T07:46:48.564Z,6.90
2023-05-07T07:49:19.038Z,7.05
2023-05-07T07:51:49.396Z,7.45
2023-05-07T07:54:20.524Z,9.23
2023-05-07T07:56:50.719Z,8.90
2023-05-07T07:59:24.355Z,9.85
2023-05-07T08:01:56.890Z,10.88
2023-05-07T08:04:30.364Z,11.23
2023-05-07T08:07:04.839Z,12.48
2023-05-07T08:09:37.640Z,13.23
2023-05-07T08:12:09.273Z,11.25
2023-05-07T08:14:42.734Z,10.82
2023-05-07T08:17:14.377Z,12.02
2023-05-07T08:19:44.788Z,11.15
2023-05-07T08:22:18.984Z,10.27
2023-05-07T08:24:49.118Z,9.75
2023-05-07T08:27:19.683Z,8.75
2023-05-07T08:29:52.608Z,8.93
2023-05-07T08:32:24.435Z,8.82
2023-05-07T08:34:55.144Z,8.25
2023-05-07T08:37:25.602Z,8.80
2023-05-07T08:39:55.847Z,8.85
2023-05-07T08:42:31.512Z,8.32
2023-05-07T08:45:07.016Z,8.35
2023-05-07T08:47:46.605Z,8.30
2023-05-07T08:50:20.755Z,7.47
2023-05-07T08:52:52.273Z,6.53
2023-05-07T08:55:24.985Z,7.15
2023-05-07T08:57:55.188Z,6.40
2023-05-07T09:00:29.782Z,5.50
2023-05-07T09:03:02.685Z,4.63
2023-05-07T09:05:33.195Z,3.67
2023-05-07T09:08:04.014Z,3.65
2023-05-07T09:10:37.398Z,3.30
2023-05-07T09:13:08.833Z,3.65
2023-05-07T09:15:41.963Z,3.80
2023-05-07T09:18:13.279Z,5.18
2023-05-07T09:20:44.663Z,5.05
2023-05-07T09:23:15.121Z,5.00
2023-05-07T09:25:47.082Z,6.88
2023-05-07T09:28:27.717Z,6.13
2023-05-07T09:31:00.817Z,5.75
2023-05-07T09:33:32.870Z,5.95
2023-05-07T09:36:07.912Z,5.95
2023-05-07T09:38:40.196Z,6.07
2023-05-07T09:41:12.447Z,4.38
2023-05-07T09:44:08.081Z,5.22
2023-05-07T09:46:47.773Z,4.07
2023-05-07T09:49:27.348Z,4.70
2023-05-07T09:52:07.305Z,4.65
2023-05-07T09:54:41.595Z,4.20
2023-05-07T09:57:13.582Z,4.60
2023-05-07T09:59:47.360Z,5.50
2023-05-07T10:02:24.803Z,4.75
2023-05-07T10:04:58.394Z,4.47
2023-05-07T10:07:33.876Z,4.75
2023-05-07T10:10:11.447Z,5.45
2023-05-07T10:12:46.206Z,4.80
2023-05-07T10:15:25.741Z,4.68
2023-05-07T10:18:02.860Z,4.80
2023-05-07T10:20:33.962Z,4.00
2023-05-07T10:23:08.216Z,3.83
2023-05-07T10:25:45.259Z,2.80
2023-05-07T10:28:23.900Z,3.00
2023-05-07T10:31:12.113Z,2.00
2023-05-07T10:33:52.964Z,1.52
2023-05-07T10:36:26.503Z,1.92
2023-05-07T10:38:57.656Z,1.73
2023-05-07T10:41:28.675Z,2.25
2023-05-07T10:44:02.469Z,2.67
2023-05-07T10:46:36.750Z,3.10
2023-05-07T10:49:36.047Z,3.67
2023-05-07T10:52:18.794Z,3.30
2023-05-07T10:55:26.553Z,3.35
2023-05-07T10:58:32.551Z,2.55
2023-05-07T11:01:14.595Z,2.97
2023-05-07T11:04:15.779Z,3.10
2023-05-07T11:07:29.359Z,3.20
2023-05-07T11:10:19.770Z,2.50
2023-05-07T11:13:01.821Z,2.45
2023-05-07T11:15:48.018Z,2.58
2023-05-07T11:19:01.590Z,2.13
2023-05-07T11:21:42.325Z,1.90
2023-05-07T11:24:29.610Z,1.95
2023-05-07T11:27:09.524Z,1.80
2023-05-07T11:29:40.502Z,2.22
2023-05-07T11:32:17.505Z,2.25
2023-05-07T11:34:58.988Z,1.70
2023-05-07T11:37:31.027Z,1.80
2023-05-07T11:40:12.212Z,1.70
2023-05-07T11:42:45.834Z,2.47
2023-05-07T11:47:46.632Z,1.63
2023-05-07T11:50:17.138Z,1.52
2023-05-07T11:52:54.893Z,1.58
2023-05-07T11:55:26.300Z,1.77
2023-05-07T11:58:10.825Z,2.03
2023-05-07T12:00:42.127Z,1.98
2023-05-07T12:03:12.596Z,2.42
2023-05-07T12:05:43.180Z,2.00
2023-05-07T12:08:17.918Z,1.88
2023-05-07T12:10:56.628Z,1.58
2023-05-07T12:13:30.178Z,1.70
2023-05-07T12:16:01.660Z,1.85
2023-05-07T12:18:33.314Z,1.65
2023-05-07T12:21:08.333Z,1.40
2023-05-07T12:24:01.021Z,1.30
2023-05-07T12:26:34.953Z,1.40
2023-05-07T12:29:14.089Z,1.63
2023-05-07T12:31:52.568Z,1.98
2023-05-07T12:34:25.106Z,1.50
2023-05-07T12:36:57.619Z,1.42
2023-05-07T12:39:31.309Z,1.20
2023-05-07T12:42:04.544Z,1.52
2023-05-07T12:44:40.049Z,2.90
2023-05-07T12:47:16.712Z,1.50
2023-05-07T12:49:48.690Z,1.75
2023-05-07T12:52:28.150Z,2.38
2023-05-07T12:55:00.734Z,1.25
2023-05-07T12:57:36.549Z,1.60
2023-05-07T13:00:20.527Z,1.40
2023-05-07T13:02:55.831Z,1.85
2023-05-07T13:05:26.113Z,2.10
2023-05-07T13:08:00.210Z,2.03
2023-05-07T13:10:31.445Z,2.08
2023-05-07T13:13:11.424Z,2.17
2023-05-07T13:15:44.504Z,2.03
2023-05-07T13:18:14.947Z,1.90
2023-05-07T13:20:45.117Z,2.50
2023-05-07T13:23:15.655Z,2.67
2023-05-07T13:25:46.104Z,2.03
2023-05-07T13:28:16.346Z,2.58
2023-05-07T13:30:50.418Z,2.60
2023-05-07T13:33:20.675Z,3.40
2023-05-07T13:35:50.952Z,2.40
2023-05-07T13:38:22.062Z,2.08
2023-05-07T13:40:55.750Z,2.30
2023-05-07T13:43:27.368Z,2.30
2023-05-07T13:46:03.736Z,2.38
2023-05-07T13:48:34.098Z,2.40
2023-05-07T13:51:04.303Z,1.88
2023-05-07T13:53:38.010Z,2.60
2023-05-07T13:56:11.097Z,1.83
2023-05-07T13:58:51.813Z,1.63
2023-05-07T14:01:30.427Z,2.20
2023-05-07T14:04:01.717Z,2.28
2023-05-07T14:06:33.556Z,2.22
2023-05-07T14:09:03.778Z,1.88
2023-05-07T14:11:35.436Z,2.13
2023-05-07T14:14:07.415Z,1.87
2023-05-07T14:16:42.349Z,1.90
2023-05-07T14:19:15.145Z,2.08
2023-05-07T14:21:45.880Z,2.00
2023-05-07T14:24:27.192Z,2.08
2023-05-07T14:27:04.914Z,1.73
2023-05-07T14:29:36.655Z,1.67
2023-05-07T14:32:10.694Z,2.58
2023-05-07T14:34:42.513Z,2.03
2023-05-07T14:37:15.945Z,2.40
2023-05-07T14:39:51.121Z,2.63
2023-05-07T14:42:27.361Z,2.00
2023-05-07T14:44:57.846Z,2.08
2023-05-07T14:47:32.722Z,2.40
2023-05-07T14:50:07.580Z,2.13
2023-05-07T14:52:44.174Z,1.65
2023-05-07T14:55:29.450Z,2.00
2023-05-07T14:58:00.042Z,2.20
2023-05-07T15:00:30.730Z,2.03
2023-05-07T15:03:10.376Z,2.83
2023-05-07T15:05:42.726Z,2.80
2023-05-07T15:08:14.168Z,2.25
2023-05-07T15:10:44.680Z,2.45
2023-05-07T15:13:16.410Z,2.13
2023-05-07T15:15:47.886Z,2.13
2023-05-07T15:18:22.836Z,2.17
2023-05-07T15:20:54.990Z,2.10
2023-05-07T15:23:25.143Z,2.30
2023-05-07T15:25:55.288Z,2.50
2023-05-07T15:28:28.288Z,2.85
2023-05-07T15:31:01.106Z,2.35
2023-05-07T15:33:34.339Z,2.55
2023-05-07T15:36:04.504Z,2.60
2023-05-07T15:38:34.972Z,2.70
2023-05-07T15:41:05.193Z,2.55
2023-05-07T15:43:35.474Z,2.60
2023-05-07T15:46:05.651Z,2.42
2023-05-07T15:48:38.484Z,2.60
2023-05-07T15:51:10.087Z,2.65
2023-05-07T15:53:41.219Z,2.15
2023-05-07T15:56:11.586Z,2.85
2023-05-07T15:58:41.791Z,2.97
2023-05-07T16:01:12.145Z,2.28
2023-05-07T16:03:45.123Z,3.28
2023-05-07T16:06:17.994Z,3.63
2023-05-07T16:08:48.544Z,3.05
2023-05-07T16:11:19.254Z,3.00
2023-05-07T16:13:49.398Z,3.10
2023-05-07T16:16:19.632Z,3.28
2023-05-07T16:18:53.125Z,3.40
2023-05-07T16:21:23.523Z,3.65
2023-05-07T16:23:57.326Z,3.47
2023-05-07T16:26:27.667Z,3.35
2023-05-07T16:28:57.917Z,3.97
2023-05-07T16:31:28.478Z,3.85
2023-05-07T16:34:01.429Z,3.92
2023-05-07T16:36:31.748Z,4.10
2023-05-07T16:39:01.949Z,3.55
2023-05-07T16:41:32.195Z,3.53
2023-05-07T16:44:02.429Z,3.97
2023-05-07T16:46:37.759Z,3.95
2023-05-07T16:49:10.493Z,3.72
2023-05-07T16:51:43.571Z,3.90
2023-05-07T16:54:13.875Z,4.55
2023-05-07T16:56:44.312Z,4.43
2023-05-07T16:59:14.566Z,4.00
2023-05-07T17:01:44.712Z,4.30
2023-05-07T17:04:17.484Z,3.95
2023-05-07T17:06:47.593Z,3.88
2023-05-07T17:09:17.781Z,4.38
2023-05-07T17:11:47.942Z,4.82
2023-05-07T17:14:19.455Z,4.47
2023-05-07T17:16:49.565Z,4.22
2023-05-07T17:19:22.375Z,4.75
2023-05-07T17:21:52.628Z,5.38
2023-05-07T17:24:22.932Z,4.07
2023-05-07T17:26:53.123Z,4.28
2023-05-07T17:29:23.320Z,4.03
2023-05-07T17:31:53.583Z,5.00
2023-05-07T17:34:26.554Z,4.93
2023-05-07T17:36:57.780Z,4.85
2023-05-07T17:39:27.932Z,4.43
2023-05-07T17:41:58.754Z,4.80
2023-05-07T17:44:28.914Z,4.60
2023-05-07T17:46:59.041Z,4.65
2023-05-07T17:49:31.835Z,4.55
2023-05-07T17:52:02.099Z,4.47
2023-05-07T17:54:34.086Z,4.78
2023-05-07T17:57:04.340Z,4.20
2023-05-07T17:59:34.502Z,4.03
2023-05-07T18:02:04.696Z,4.30
2023-05-07T18:04:38.916Z,4.50
2023-05-07T18:07:09.103Z,4.35
2023-05-07T18:09:39.437Z,4.28
2023-05-07T18:12:09.959Z,3.55
2023-05-07T18:14:40.114Z,4.25
2023-05-07T18:17:10.723Z,4.10
2023-05-07T18:19:43.854Z,3.42
2023-05-07T18:22:16.577Z,4.40
2023-05-07T18:24:46.847Z,4.10
2023-05-07T18:27:17.102Z,4.25
2023-05-07T18:29:47.351Z,3.85
2023-05-07T18:32:17.686Z,3.55
2023-05-07T18:34:50.671Z,3.53
2023-05-07T18:37:21.393Z,3.45
2023-05-07T18:39:51.948Z,3.30
2023-05-07T18:42:22.107Z,3.75
2023-05-07T18:44:54.671Z,3.60
2023-05-07T18:47:24.840Z,2.78
2023-05-07T18:49:57.608Z,3.00
2023-05-07T18:52:29.258Z,2.73
2023-05-07T18:54:59.504Z,2.80
2023-05-07T18:57:29.979Z,2.70
2023-05-07T19:00:00.208Z,2.70
2023-05-07T19:02:30.460Z,2.80
2023-05-07T19:05:03.235Z,2.63
2023-05-07T19:07:33.847Z,3.67
2023-05-07T19:10:05.980Z,6.55
2023-05-07T19:12:36.595Z,7.70
2023-05-07T19:15:07.333Z,5.82
2023-05-07T19:17:38.537Z,3.97
2023-05-07T19:20:13.109Z,6.55
2023-05-07T19:22:43.717Z,13.10
2023-05-07T19:25:14.366Z,5.20
2023-05-07T19:27:44.708Z,3.50
2023-05-07T19:30:15.484Z,3.83
2023-05-07T19:32:45.857Z,3.80
2023-05-07T19:35:18.756Z,9.68
2023-05-07T19:37:48.898Z,7.43
2023-05-07T19:40:19.232Z,7.82
2023-05-07T19:42:49.392Z,16.25
2023-05-07T19:45:19.985Z,16.58
2023-05-07T19:47:51.475Z,13.73
2023-05-07T19:50:24.591Z,5.13
2023-05-07T19:52:54.983Z,3.33
2023-05-07T19:55:25.518Z,3.55
2023-05-07T19:57:55.728Z,3.30
2023-05-07T20:00:27.657Z,3.70
2023-05-07T20:02:58.003Z,3.63
2023-05-07T20:05:33.304Z,3.72
2023-05-07T20:08:03.818Z,3.78
2023-05-07T20:10:33.972Z,4.30
2023-05-07T20:13:04.214Z,3.92
2023-05-07T20:15:35.167Z,3.83
2023-05-07T20:18:05.476Z,4.80
2023-05-07T20:20:38.357Z,4.15
2023-05-07T20:23:08.508Z,4.32
2023-05-07T20:25:38.765Z,6.43
2023-05-07T20:28:10.780Z,6.30
2023-05-07T20:30:41.395Z,6.38
2023-05-07T20:33:11.844Z,7.47
2023-05-07T20:35:44.569Z,7.95
2023-05-07T20:38:14.790Z,8.23
2023-05-07T20:40:44.946Z,7.68
2023-05-07T20:43:15.250Z,7.68
2023-05-07T20:45:45.751Z,8.57
2023-05-07T20:48:16.085Z,7.63
2023-05-07T20:50:48.858Z,7.35
2023-05-07T20:53:19.066Z,7.97
2023-05-07T20:55:49.254Z,7.78
2023-05-07T20:58:19.460Z,6.28
2023-05-07T21:00:50.005Z,5.90
2023-05-07T21:03:20.297Z,5.40
2023-05-07T21:05:58.071Z,5.50
2023-05-07T21:08:28.309Z,5.88
2023-05-07T21:10:59.448Z,5.57
2023-05-07T21:13:29.801Z,5.15
2023-05-07T21:16:00.422Z,4.88
2023-05-07T21:18:31.137Z,5.15
2023-05-07T21:21:03.982Z,5.53
2023-05-07T21:23:34.098Z,5.13
2023-05-07T21:26:04.371Z,5.15
2023-05-07T21:28:34.554Z,5.35
2023-05-07T21:31:05.045Z,5.32
2023-05-07T21:33:35.628Z,5.47
2023-05-07T21:36:09.603Z,5.35
2023-05-07T21:38:40.382Z,5.47
2023-05-07T21:41:10.643Z,5.50
2023-05-07T21:43:41.168Z,5.47
2023-05-07T21:46:11.750Z,5.63
2023-05-07T21:48:42.020Z,5.68
2023-05-07T21:51:14.755Z,6.03
2023-05-07T21:53:45.225Z,6.03
2023-05-07T21:56:15.384Z,6.20
2023-05-07T21:58:45.558Z,6.63
2023-05-07T22:01:16.236Z,6.15
2023-05-07T22:03:46.391Z,5.30
2023-05-07T22:06:22.051Z,4.68
2023-05-07T22:08:52.354Z,5.38
2023-05-07T22:11:22.516Z,5.00
2023-05-07T22:13:52.700Z,4.15
2023-05-07T22:16:23.105Z,4.43
2023-05-07T22:18:53.338Z,5.25
2023-05-07T22:21:26.273Z,4.97
2023-05-07T22:23:56.458Z,4.38
2023-05-07T22:26:26.744Z,4.68
2023-05-07T22:28:56.901Z,4.90
2023-05-07T22:31:27.230Z,5.10
2023-05-07T22:33:57.900Z,5.10
2023-05-07T22:36:31.250Z,5.20
2023-05-07T22:39:01.709Z,5.10
2023-05-07T22:41:31.867Z,4.90
2023-05-07T22:44:02.014Z,5.38
2023-05-07T22:46:32.622Z,5.07
2023-05-07T22:49:02.941Z,5.07
2023-05-07T22:51:35.697Z,5.28
2023-05-07T22:54:05.803Z,5.50
2023-05-07T22:56:35.940Z,5.55
2023-05-07T22:59:06.278Z,5.28
2023-05-07T23:01:36.693Z,5.72
2023-05-07T23:04:07.140Z,4.45
2023-05-07T23:06:39.861Z,5.13
2023-05-07T23:09:10.098Z,4.78
2023-05-07T23:11:40.385Z,4.18
2023-05-07T23:14:10.560Z,4.32
2023-05-07T23:16:40.751Z,4.55
2023-05-07T23:19:11.808Z,5.03
2023-05-07T23:21:44.681Z,4.47
2023-05-07T23:24:14.845Z,4.30
2023-05-07T23:26:45.129Z,4.72
2023-05-07T23:29:15.308Z,4.97
2023-05-07T23:31:45.709Z,4.40
2023-05-07T23:34:18.692Z,5.18
2023-05-07T23:36:51.499Z,4.38
2023-05-07T23:39:21.714Z,5.18
2023-05-07T23:41:51.905Z,4.50
2023-05-07T23:44:22.056Z,5.10
2023-05-07T23:46:52.206Z,4.38
2023-05-07T23:49:22.356Z,4.78
2023-05-07T23:51:55.183Z,4.55
2023-05-07T23:54:25.260Z,4.25
2023-05-07T23:56:55.435Z,4.60
2023-05-07T23:59:25.646Z,4.22
